sensor_id;sensor_type;location;lat;lon;timestamp;P1;durP1;ratioP1;P2;durP2;ratioP2
61741;SDS011;47650;49.848;9.620;2022-12-11T00:01:48;14.80;;;11.32;;
61741;SDS011;47650;49.848;9.620;2022-12-11T00:04:13;13.63;;;9.73;;
61741;SDS011;47650;49.848;9.620;2022-12-11T00:06:39;18.10;;;11.85;;
61741;SDS011;47650;49.848;9.620;2022-12-11T00:09:04;16.13;;;11.82;;
61741;SDS011;47650;49.848;9.620;2022-12-11T00:11:30;18.77;;;13.18;;
61741;SDS011;47650;49.848;9.620;2022-12-11T00:13:55;17.00;;;12.30;;
61741;SDS011;47650;49.848;9.620;2022-12-11T00:16:21;14.57;;;11.57;;
61741;SDS011;47650;49.848;9.620;2022-12-11T00:18:46;16.40;;;12.27;;
61741;SDS011;47650;49.848;9.620;2022-12-11T00:21:12;17.50;;;12.80;;
61741;SDS011;47650;49.848;9.620;2022-12-11T00:23:41;17.00;;;12.95;;
61741;SDS011;47650;49.848;9.620;2022-12-11T00:26:07;16.92;;;13.15;;
61741;SDS011;47650;49.848;9.620;2022-12-11T00:28:36;16.85;;;12.45;;
61741;SDS011;47650;49.848;9.620;2022-12-11T00:31:05;17.10;;;13.00;;
61741;SDS011;47650;49.848;9.620;2022-12-11T00:33:31;16.55;;;11.90;;
61741;SDS011;47650;49.848;9.620;2022-12-11T00:35:57;15.85;;;11.85;;
61741;SDS011;47650;49.848;9.620;2022-12-11T00:38:23;15.45;;;11.75;;
61741;SDS011;47650;49.848;9.620;2022-12-11T00:40:49;16.05;;;12.43;;
61741;SDS011;47650;49.848;9.620;2022-12-11T00:43:15;14.20;;;11.48;;
61741;SDS011;47650;49.848;9.620;2022-12-11T00:45:43;15.57;;;11.60;;
61741;SDS011;47650;49.848;9.620;2022-12-11T00:48:10;16.30;;;12.25;;
61741;SDS011;47650;49.848;9.620;2022-12-11T00:50:37;16.90;;;12.85;;
61741;SDS011;47650;49.848;9.620;2022-12-11T00:53:03;16.88;;;12.43;;
61741;SDS011;47650;49.848;9.620;2022-12-11T00:55:31;17.38;;;13.10;;
61741;SDS011;47650;49.848;9.620;2022-12-11T00:58:03;17.38;;;13.30;;
61741;SDS011;47650;49.848;9.620;2022-12-11T01:00:30;18.23;;;12.68;;
61741;SDS011;47650;49.848;9.620;2022-12-11T01:02:55;16.55;;;13.57;;
61741;SDS011;47650;49.848;9.620;2022-12-11T01:05:21;18.77;;;14.40;;
61741;SDS011;47650;49.848;9.620;2022-12-11T01:07:46;16.92;;;13.05;;
61741;SDS011;47650;49.848;9.620;2022-12-11T01:10:12;18.20;;;13.90;;
61741;SDS011;47650;49.848;9.620;2022-12-11T01:12:51;18.83;;;13.77;;
61741;SDS011;47650;49.848;9.620;2022-12-11T01:15:30;16.50;;;13.05;;
61741;SDS011;47650;49.848;9.620;2022-12-11T01:17:59;17.13;;;11.98;;
61741;SDS011;47650;49.848;9.620;2022-12-11T01:20:27;15.70;;;12.93;;
61741;SDS011;47650;49.848;9.620;2022-12-11T01:22:53;15.23;;;11.38;;
61741;SDS011;47650;49.848;9.620;2022-12-11T01:25:22;15.20;;;11.98;;
61741;SDS011;47650;49.848;9.620;2022-12-11T01:27:51;16.13;;;12.80;;
61741;SDS011;47650;49.848;9.620;2022-12-11T01:30:18;15.45;;;11.85;;
61741;SDS011;47650;49.848;9.620;2022-12-11T01:32:46;15.85;;;12.50;;
61741;SDS011;47650;49.848;9.620;2022-12-11T01:35:13;17.65;;;12.73;;
61741;SDS011;47650;49.848;9.620;2022-12-11T01:37:39;15.73;;;12.50;;
61741;SDS011;47650;49.848;9.620;2022-12-11T01:40:12;17.63;;;13.75;;
61741;SDS011;47650;49.848;9.620;2022-12-11T01:42:39;15.27;;;12.32;;
61741;SDS011;47650;49.848;9.620;2022-12-11T01:45:22;15.68;;;11.70;;
61741;SDS011;47650;49.848;9.620;2022-12-11T01:48:10;14.65;;;11.82;;
61741;SDS011;47650;49.848;9.620;2022-12-11T01:50:40;18.67;;;13.98;;
61741;SDS011;47650;49.848;9.620;2022-12-11T01:53:09;19.10;;;13.70;;
61741;SDS011;47650;49.848;9.620;2022-12-11T01:55:39;16.77;;;13.13;;
61741;SDS011;47650;49.848;9.620;2022-12-11T01:58:05;17.08;;;13.18;;
61741;SDS011;47650;49.848;9.620;2022-12-11T02:00:32;19.55;;;14.65;;
61741;SDS011;47650;49.848;9.620;2022-12-11T02:02:57;17.20;;;13.50;;
61741;SDS011;47650;49.848;9.620;2022-12-11T02:05:29;17.55;;;13.90;;
61741;SDS011;47650;49.848;9.620;2022-12-11T02:07:55;17.70;;;13.30;;
61741;SDS011;47650;49.848;9.620;2022-12-11T02:10:23;17.55;;;13.70;;
61741;SDS011;47650;49.848;9.620;2022-12-11T02:16:10;17.70;;;13.55;;
61741;SDS011;47650;49.848;9.620;2022-12-11T02:18:47;18.95;;;13.20;;
61741;SDS011;47650;49.848;9.620;2022-12-11T02:21:31;18.80;;;13.88;;
61741;SDS011;47650;49.848;9.620;2022-12-11T02:27:10;18.08;;;13.48;;
61741;SDS011;47650;49.848;9.620;2022-12-11T02:29:47;18.08;;;13.98;;
61741;SDS011;47650;49.848;9.620;2022-12-11T02:32:18;18.38;;;14.25;;
61741;SDS011;47650;49.848;9.620;2022-12-11T02:34:48;18.38;;;13.73;;
61741;SDS011;47650;49.848;9.620;2022-12-11T02:37:30;19.70;;;15.02;;
61741;SDS011;47650;49.848;9.620;2022-12-11T02:39:58;21.83;;;15.18;;
61741;SDS011;47650;49.848;9.620;2022-12-11T02:42:26;21.58;;;15.48;;
61741;SDS011;47650;49.848;9.620;2022-12-11T02:44:54;20.05;;;13.75;;
61741;SDS011;47650;49.848;9.620;2022-12-11T02:47:22;19.45;;;15.07;;
61741;SDS011;47650;49.848;9.620;2022-12-11T02:49:53;19.63;;;14.70;;
61741;SDS011;47650;49.848;9.620;2022-12-11T02:52:22;22.77;;;15.05;;
61741;SDS011;47650;49.848;9.620;2022-12-11T02:54:50;21.88;;;15.10;;
61741;SDS011;47650;49.848;9.620;2022-12-11T02:57:26;20.33;;;14.77;;
61741;SDS011;47650;49.848;9.620;2022-12-11T03:00:03;21.65;;;15.60;;
61741;SDS011;47650;49.848;9.620;2022-12-11T03:02:34;20.25;;;14.90;;
61741;SDS011;47650;49.848;9.620;2022-12-11T03:05:00;22.27;;;16.02;;
61741;SDS011;47650;49.848;9.620;2022-12-11T03:07:30;20.02;;;15.18;;
61741;SDS011;47650;49.848;9.620;2022-12-11T03:09:58;21.80;;;16.10;;
61741;SDS011;47650;49.848;9.620;2022-12-11T03:12:27;20.25;;;14.93;;
61741;SDS011;47650;49.848;9.620;2022-12-11T03:14:55;19.95;;;14.68;;
61741;SDS011;47650;49.848;9.620;2022-12-11T03:17:27;22.65;;;16.10;;
61741;SDS011;47650;49.848;9.620;2022-12-11T03:20:30;19.98;;;14.45;;
61741;SDS011;47650;49.848;9.620;2022-12-11T03:25:58;21.35;;;15.00;;
61741;SDS011;47650;49.848;9.620;2022-12-11T03:31:15;22.13;;;15.40;;
61741;SDS011;47650;49.848;9.620;2022-12-11T03:33:50;22.35;;;16.00;;
61741;SDS011;47650;49.848;9.620;2022-12-11T03:36:21;22.80;;;16.13;;
61741;SDS011;47650;49.848;9.620;2022-12-11T03:38:53;24.35;;;16.70;;
61741;SDS011;47650;49.848;9.620;2022-12-11T03:41:25;24.75;;;16.77;;
61741;SDS011;47650;49.848;9.620;2022-12-11T03:43:52;22.35;;;16.80;;
61741;SDS011;47650;49.848;9.620;2022-12-11T03:46:21;22.45;;;17.00;;
61741;SDS011;47650;49.848;9.620;2022-12-11T03:48:52;23.60;;;16.98;;
61741;SDS011;47650;49.848;9.620;2022-12-11T03:51:23;15.88;;;11.98;;
61741;SDS011;47650;49.848;9.620;2022-12-11T03:53:49;26.13;;;17.27;;
61741;SDS011;47650;49.848;9.620;2022-12-11T03:56:17;20.33;;;14.73;;
61741;SDS011;47650;49.848;9.620;2022-12-11T03:58:47;18.35;;;13.35;;
61741;SDS011;47650;49.848;9.620;2022-12-11T04:01:13;19.70;;;14.27;;
61741;SDS011;47650;49.848;9.620;2022-12-11T04:03:39;17.90;;;13.43;;
61741;SDS011;47650;49.848;9.620;2022-12-11T04:06:10;22.15;;;15.50;;
61741;SDS011;47650;49.848;9.620;2022-12-11T04:11:07;19.48;;;13.70;;
61741;SDS011;47650;49.848;9.620;2022-12-11T04:13:51;19.52;;;14.27;;
61741;SDS011;47650;49.848;9.620;2022-12-11T04:16:37;21.13;;;13.80;;
61741;SDS011;47650;49.848;9.620;2022-12-11T04:19:08;18.85;;;14.07;;
61741;SDS011;47650;49.848;9.620;2022-12-11T04:21:54;19.13;;;14.02;;
61741;SDS011;47650;49.848;9.620;2022-12-11T04:27:03;18.42;;;13.13;;
61741;SDS011;47650;49.848;9.620;2022-12-11T04:29:28;19.98;;;14.70;;
61741;SDS011;47650;49.848;9.620;2022-12-11T04:31:55;19.33;;;14.10;;
61741;SDS011;47650;49.848;9.620;2022-12-11T04:34:21;18.92;;;13.77;;
61741;SDS011;47650;49.848;9.620;2022-12-11T04:36:51;21.95;;;14.80;;
61741;SDS011;47650;49.848;9.620;2022-12-11T04:39:22;21.55;;;15.13;;
61741;SDS011;47650;49.848;9.620;2022-12-11T04:41:49;23.08;;;15.43;;
61741;SDS011;47650;49.848;9.620;2022-12-11T04:44:20;22.27;;;15.82;;
61741;SDS011;47650;49.848;9.620;2022-12-11T04:46:45;21.75;;;15.65;;
61741;SDS011;47650;49.848;9.620;2022-12-11T04:49:12;23.40;;;16.88;;
61741;SDS011;47650;49.848;9.620;2022-12-11T04:51:37;24.98;;;16.38;;
61741;SDS011;47650;49.848;9.620;2022-12-11T04:54:02;26.60;;;18.70;;
61741;SDS011;47650;49.848;9.620;2022-12-11T04:56:27;24.92;;;17.20;;
61741;SDS011;47650;49.848;9.620;2022-12-11T04:58:53;22.27;;;16.25;;
61741;SDS011;47650;49.848;9.620;2022-12-11T05:01:19;25.77;;;17.58;;
61741;SDS011;47650;49.848;9.620;2022-12-11T05:03:46;21.33;;;15.20;;
61741;SDS011;47650;49.848;9.620;2022-12-11T05:06:11;20.85;;;14.35;;
61741;SDS011;47650;49.848;9.620;2022-12-11T05:08:37;17.73;;;12.80;;
61741;SDS011;47650;49.848;9.620;2022-12-11T05:11:07;22.17;;;15.70;;
61741;SDS011;47650;49.848;9.620;2022-12-11T05:13:35;23.50;;;14.95;;
61741;SDS011;47650;49.848;9.620;2022-12-11T05:16:04;20.13;;;14.90;;
61741;SDS011;47650;49.848;9.620;2022-12-11T05:18:32;22.15;;;12.95;;
61741;SDS011;47650;49.848;9.620;2022-12-11T05:21:03;21.23;;;14.20;;
61741;SDS011;47650;49.848;9.620;2022-12-11T05:23:30;22.33;;;15.38;;
61741;SDS011;47650;49.848;9.620;2022-12-11T05:25:57;20.25;;;15.75;;
61741;SDS011;47650;49.848;9.620;2022-12-11T05:28:25;19.65;;;13.98;;
61741;SDS011;47650;49.848;9.620;2022-12-11T05:30:55;20.48;;;15.00;;
61741;SDS011;47650;49.848;9.620;2022-12-11T05:33:22;22.45;;;14.40;;
61741;SDS011;47650;49.848;9.620;2022-12-11T05:35:48;22.05;;;16.08;;
61741;SDS011;47650;49.848;9.620;2022-12-11T05:38:15;22.10;;;16.00;;
61741;SDS011;47650;49.848;9.620;2022-12-11T05:40:40;24.95;;;16.38;;
61741;SDS011;47650;49.848;9.620;2022-12-11T05:43:06;22.38;;;15.25;;
61741;SDS011;47650;49.848;9.620;2022-12-11T05:45:31;21.48;;;14.82;;
61741;SDS011;47650;49.848;9.620;2022-12-11T05:47:57;18.38;;;14.50;;
61741;SDS011;47650;49.848;9.620;2022-12-11T05:50:22;19.80;;;14.02;;
61741;SDS011;47650;49.848;9.620;2022-12-11T05:52:47;23.58;;;16.40;;
61741;SDS011;47650;49.848;9.620;2022-12-11T05:55:13;22.45;;;15.35;;
61741;SDS011;47650;49.848;9.620;2022-12-11T05:57:38;23.60;;;18.13;;
61741;SDS011;47650;49.848;9.620;2022-12-11T06:00:05;24.67;;;18.60;;
61741;SDS011;47650;49.848;9.620;2022-12-11T06:02:33;22.58;;;16.95;;
61741;SDS011;47650;49.848;9.620;2022-12-11T06:05:01;22.13;;;15.18;;
61741;SDS011;47650;49.848;9.620;2022-12-11T06:07:29;21.33;;;15.55;;
61741;SDS011;47650;49.848;9.620;2022-12-11T06:10:03;19.70;;;13.35;;
61741;SDS011;47650;49.848;9.620;2022-12-11T06:12:28;19.35;;;14.93;;
61741;SDS011;47650;49.848;9.620;2022-12-11T06:14:55;20.75;;;15.93;;
61741;SDS011;47650;49.848;9.620;2022-12-11T06:17:28;20.35;;;14.43;;
61741;SDS011;47650;49.848;9.620;2022-12-11T06:19:55;22.50;;;15.15;;
61741;SDS011;47650;49.848;9.620;2022-12-11T06:22:20;26.33;;;17.33;;
61741;SDS011;47650;49.848;9.620;2022-12-11T06:24:46;22.67;;;15.40;;
61741;SDS011;47650;49.848;9.620;2022-12-11T06:27:11;26.17;;;18.55;;
61741;SDS011;47650;49.848;9.620;2022-12-11T06:29:37;22.10;;;15.02;;
61741;SDS011;47650;49.848;9.620;2022-12-11T06:32:02;24.02;;;17.35;;
61741;SDS011;47650;49.848;9.620;2022-12-11T06:34:27;22.80;;;16.33;;
61741;SDS011;47650;49.848;9.620;2022-12-11T06:36:53;25.05;;;17.23;;
61741;SDS011;47650;49.848;9.620;2022-12-11T06:39:19;24.48;;;16.80;;
61741;SDS011;47650;49.848;9.620;2022-12-11T06:41:46;23.77;;;16.77;;
61741;SDS011;47650;49.848;9.620;2022-12-11T06:44:21;21.65;;;16.67;;
61741;SDS011;47650;49.848;9.620;2022-12-11T06:46:46;23.95;;;16.77;;
61741;SDS011;47650;49.848;9.620;2022-12-11T06:49:11;19.75;;;14.57;;
61741;SDS011;47650;49.848;9.620;2022-12-11T06:51:37;23.35;;;16.40;;
61741;SDS011;47650;49.848;9.620;2022-12-11T06:54:02;24.50;;;17.35;;
61741;SDS011;47650;49.848;9.620;2022-12-11T06:56:27;27.55;;;19.30;;
61741;SDS011;47650;49.848;9.620;2022-12-11T06:58:53;23.45;;;16.67;;
61741;SDS011;47650;49.848;9.620;2022-12-11T07:01:22;25.73;;;18.50;;
61741;SDS011;47650;49.848;9.620;2022-12-11T07:03:51;25.50;;;17.58;;
61741;SDS011;47650;49.848;9.620;2022-12-11T07:06:18;23.35;;;17.00;;
61741;SDS011;47650;49.848;9.620;2022-12-11T07:08:43;23.25;;;16.17;;
61741;SDS011;47650;49.848;9.620;2022-12-11T07:11:15;21.23;;;16.08;;
61741;SDS011;47650;49.848;9.620;2022-12-11T07:13:44;17.42;;;12.20;;
61741;SDS011;47650;49.848;9.620;2022-12-11T07:16:10;21.10;;;14.07;;
61741;SDS011;47650;49.848;9.620;2022-12-11T07:18:38;17.08;;;11.48;;
61741;SDS011;47650;49.848;9.620;2022-12-11T07:21:05;16.05;;;11.20;;
61741;SDS011;47650;49.848;9.620;2022-12-11T07:23:33;15.43;;;10.60;;
61741;SDS011;47650;49.848;9.620;2022-12-11T07:26:03;15.77;;;11.45;;
61741;SDS011;47650;49.848;9.620;2022-12-11T07:28:33;17.63;;;11.70;;
61741;SDS011;47650;49.848;9.620;2022-12-11T07:31:03;13.32;;;9.70;;
61741;SDS011;47650;49.848;9.620;2022-12-11T07:33:33;15.73;;;9.90;;
61741;SDS011;47650;49.848;9.620;2022-12-11T07:36:02;15.82;;;10.35;;
61741;SDS011;47650;49.848;9.620;2022-12-11T07:38:28;13.32;;;9.15;;
61741;SDS011;47650;49.848;9.620;2022-12-11T07:40:54;14.60;;;10.07;;
61741;SDS011;47650;49.848;9.620;2022-12-11T07:43:22;14.82;;;10.27;;
61741;SDS011;47650;49.848;9.620;2022-12-11T07:45:47;14.63;;;10.20;;
61741;SDS011;47650;49.848;9.620;2022-12-11T07:48:13;14.50;;;10.95;;
61741;SDS011;47650;49.848;9.620;2022-12-11T07:50:38;12.93;;;9.63;;
61741;SDS011;47650;49.848;9.620;2022-12-11T07:53:03;15.30;;;10.32;;
61741;SDS011;47650;49.848;9.620;2022-12-11T07:55:31;17.20;;;10.80;;
61741;SDS011;47650;49.848;9.620;2022-12-11T07:57:57;16.70;;;11.18;;
61741;SDS011;47650;49.848;9.620;2022-12-11T08:00:22;16.52;;;11.57;;
61741;SDS011;47650;49.848;9.620;2022-12-11T08:02:53;13.88;;;10.52;;
61741;SDS011;47650;49.848;9.620;2022-12-11T08:05:24;16.05;;;10.57;;
61741;SDS011;47650;49.848;9.620;2022-12-11T08:07:50;12.82;;;9.07;;
61741;SDS011;47650;49.848;9.620;2022-12-11T08:10:15;15.07;;;10.55;;
61741;SDS011;47650;49.848;9.620;2022-12-11T08:12:40;14.50;;;10.02;;
61741;SDS011;47650;49.848;9.620;2022-12-11T08:15:06;17.15;;;11.85;;
61741;SDS011;47650;49.848;9.620;2022-12-11T08:17:32;17.30;;;10.73;;
61741;SDS011;47650;49.848;9.620;2022-12-11T08:19:57;17.15;;;11.98;;
61741;SDS011;47650;49.848;9.620;2022-12-11T08:22:22;15.82;;;10.55;;
61741;SDS011;47650;49.848;9.620;2022-12-11T08:24:47;16.92;;;11.55;;
61741;SDS011;47650;49.848;9.620;2022-12-11T08:27:15;16.45;;;11.43;;
61741;SDS011;47650;49.848;9.620;2022-12-11T08:29:41;17.15;;;11.43;;
61741;SDS011;47650;49.848;9.620;2022-12-11T08:32:06;16.73;;;12.15;;
61741;SDS011;47650;49.848;9.620;2022-12-11T08:34:31;15.23;;;11.57;;
61741;SDS011;47650;49.848;9.620;2022-12-11T08:36:58;17.35;;;11.30;;
61741;SDS011;47650;49.848;9.620;2022-12-11T08:39:23;16.88;;;12.43;;
61741;SDS011;47650;49.848;9.620;2022-12-11T08:41:50;18.05;;;12.90;;
61741;SDS011;47650;49.848;9.620;2022-12-11T08:44:15;18.23;;;12.18;;
61741;SDS011;47650;49.848;9.620;2022-12-11T08:46:40;15.93;;;12.18;;
61741;SDS011;47650;49.848;9.620;2022-12-11T08:49:06;17.25;;;12.80;;
61741;SDS011;47650;49.848;9.620;2022-12-11T08:51:31;16.45;;;12.13;;
61741;SDS011;47650;49.848;9.620;2022-12-11T08:53:58;16.27;;;12.38;;
61741;SDS011;47650;49.848;9.620;2022-12-11T08:56:24;17.60;;;12.70;;
61741;SDS011;47650;49.848;9.620;2022-12-11T08:58:51;16.02;;;11.80;;
61741;SDS011;47650;49.848;9.620;2022-12-11T09:01:19;14.43;;;11.23;;
61741;SDS011;47650;49.848;9.620;2022-12-11T09:03:46;17.25;;;12.65;;
61741;SDS011;47650;49.848;9.620;2022-12-11T09:06:13;16.63;;;12.73;;
61741;SDS011;47650;49.848;9.620;2022-12-11T09:08:42;16.25;;;11.98;;
61741;SDS011;47650;49.848;9.620;2022-12-11T09:11:12;17.38;;;12.48;;
61741;SDS011;47650;49.848;9.620;2022-12-11T09:13:40;17.65;;;13.15;;
61741;SDS011;47650;49.848;9.620;2022-12-11T09:16:06;16.88;;;11.60;;
61741;SDS011;47650;49.848;9.620;2022-12-11T09:18:36;16.33;;;12.30;;
61741;SDS011;47650;49.848;9.620;2022-12-11T09:21:03;15.52;;;11.88;;
61741;SDS011;47650;49.848;9.620;2022-12-11T09:23:30;16.85;;;11.98;;
61741;SDS011;47650;49.848;9.620;2022-12-11T09:25:57;18.13;;;13.13;;
61741;SDS011;47650;49.848;9.620;2022-12-11T09:28:23;16.88;;;11.98;;
61741;SDS011;47650;49.848;9.620;2022-12-11T09:30:51;15.13;;;11.63;;
61741;SDS011;47650;49.848;9.620;2022-12-11T09:33:16;17.63;;;12.35;;
61741;SDS011;47650;49.848;9.620;2022-12-11T09:35:42;16.63;;;12.75;;
61741;SDS011;47650;49.848;9.620;2022-12-11T09:38:07;15.57;;;11.18;;
61741;SDS011;47650;49.848;9.620;2022-12-11T09:40:38;17.27;;;12.57;;
61741;SDS011;47650;49.848;9.620;2022-12-11T09:43:14;17.23;;;12.15;;
61741;SDS011;47650;49.848;9.620;2022-12-11T09:45:49;18.55;;;13.15;;
61741;SDS011;47650;49.848;9.620;2022-12-11T09:48:15;16.80;;;13.18;;
61741;SDS011;47650;49.848;9.620;2022-12-11T09:50:46;16.85;;;12.25;;
61741;SDS011;47650;49.848;9.620;2022-12-11T09:53:15;19.23;;;13.45;;
61741;SDS011;47650;49.848;9.620;2022-12-11T09:59:22;16.88;;;11.52;;
61741;SDS011;47650;49.848;9.620;2022-12-11T10:07:15;15.10;;;10.75;;
61741;SDS011;47650;49.848;9.620;2022-12-11T10:10:02;13.70;;;9.95;;
61741;SDS011;47650;49.848;9.620;2022-12-11T10:12:49;16.27;;;11.20;;
61741;SDS011;47650;49.848;9.620;2022-12-11T10:15:38;16.83;;;11.43;;
61741;SDS011;47650;49.848;9.620;2022-12-11T10:18:17;14.88;;;10.52;;
61741;SDS011;47650;49.848;9.620;2022-12-11T10:20:48;14.98;;;10.57;;
61741;SDS011;47650;49.848;9.620;2022-12-11T10:23:20;13.02;;;9.55;;
61741;SDS011;47650;49.848;9.620;2022-12-11T10:25:53;16.35;;;10.98;;
61741;SDS011;47650;49.848;9.620;2022-12-11T10:28:27;13.38;;;9.20;;
61741;SDS011;47650;49.848;9.620;2022-12-11T10:30:56;13.13;;;9.85;;
61741;SDS011;47650;49.848;9.620;2022-12-11T10:35:59;17.23;;;11.75;;
61741;SDS011;47650;49.848;9.620;2022-12-11T10:38:31;20.90;;;10.30;;
61741;SDS011;47650;49.848;9.620;2022-12-11T10:41:02;13.43;;;10.00;;
61741;SDS011;47650;49.848;9.620;2022-12-11T10:45:59;14.38;;;10.90;;
61741;SDS011;47650;49.848;9.620;2022-12-11T10:48:24;13.52;;;9.60;;
61741;SDS011;47650;49.848;9.620;2022-12-11T10:50:57;14.32;;;9.82;;
61741;SDS011;47650;49.848;9.620;2022-12-11T10:53:25;14.93;;;10.48;;
61741;SDS011;47650;49.848;9.620;2022-12-11T10:55:51;13.18;;;9.88;;
61741;SDS011;47650;49.848;9.620;2022-12-11T10:58:21;14.00;;;10.60;;
61741;SDS011;47650;49.848;9.620;2022-12-11T11:00:56;15.00;;;10.70;;
61741;SDS011;47650;49.848;9.620;2022-12-11T11:03:27;17.88;;;12.07;;
61741;SDS011;47650;49.848;9.620;2022-12-11T11:08:36;14.05;;;10.40;;
61741;SDS011;47650;49.848;9.620;2022-12-11T11:11:12;14.95;;;10.18;;
61741;SDS011;47650;49.848;9.620;2022-12-11T11:13:45;15.27;;;10.88;;
61741;SDS011;47650;49.848;9.620;2022-12-11T11:16:14;15.13;;;10.43;;
61741;SDS011;47650;49.848;9.620;2022-12-11T11:18:51;14.30;;;10.05;;
61741;SDS011;47650;49.848;9.620;2022-12-11T11:21:21;14.68;;;10.63;;
61741;SDS011;47650;49.848;9.620;2022-12-11T11:23:48;16.20;;;11.82;;
61741;SDS011;47650;49.848;9.620;2022-12-11T11:26:15;16.25;;;11.45;;
61741;SDS011;47650;49.848;9.620;2022-12-11T11:28:46;17.05;;;12.40;;
61741;SDS011;47650;49.848;9.620;2022-12-11T11:31:15;13.67;;;9.33;;
61741;SDS011;47650;49.848;9.620;2022-12-11T11:34:23;15.40;;;10.23;;
61741;SDS011;47650;49.848;9.620;2022-12-11T11:36:33;15.68;;;10.85;;
61741;SDS011;47650;49.848;9.620;2022-12-11T11:41:49;14.43;;;10.20;;
61741;SDS011;47650;49.848;9.620;2022-12-11T11:44:24;16.33;;;11.13;;
61741;SDS011;47650;49.848;9.620;2022-12-11T11:47:02;15.00;;;10.82;;
61741;SDS011;47650;49.848;9.620;2022-12-11T11:49:40;15.43;;;10.95;;
61741;SDS011;47650;49.848;9.620;2022-12-11T12:00:51;15.93;;;10.88;;
61741;SDS011;47650;49.848;9.620;2022-12-11T12:03:18;15.40;;;11.65;;
61741;SDS011;47650;49.848;9.620;2022-12-11T12:11:57;16.42;;;12.35;;
61741;SDS011;47650;49.848;9.620;2022-12-11T12:14:42;15.55;;;11.65;;
61741;SDS011;47650;49.848;9.620;2022-12-11T12:31:57;15.75;;;11.18;;
61741;SDS011;47650;49.848;9.620;2022-12-11T12:34:44;16.70;;;12.07;;
61741;SDS011;47650;49.848;9.620;2022-12-11T12:43:24;14.82;;;9.35;;
61741;SDS011;47650;49.848;9.620;2022-12-11T12:48:53;12.75;;;9.13;;
61741;SDS011;47650;49.848;9.620;2022-12-11T12:51:20;16.02;;;10.25;;
61741;SDS011;47650;49.848;9.620;2022-12-11T12:53:59;15.75;;;11.25;;
61741;SDS011;47650;49.848;9.620;2022-12-11T12:56:28;16.30;;;11.73;;
61741;SDS011;47650;49.848;9.620;2022-12-11T12:58:56;16.60;;;11.82;;
61741;SDS011;47650;49.848;9.620;2022-12-11T13:01:25;15.95;;;11.77;;
61741;SDS011;47650;49.848;9.620;2022-12-11T13:06:38;15.80;;;10.90;;
61741;SDS011;47650;49.848;9.620;2022-12-11T13:09:14;12.95;;;8.82;;
61741;SDS011;47650;49.848;9.620;2022-12-11T13:11:41;17.73;;;11.38;;
61741;SDS011;47650;49.848;9.620;2022-12-11T13:16:43;19.30;;;13.10;;
61741;SDS011;47650;49.848;9.620;2022-12-11T13:22:01;19.75;;;13.50;;
61741;SDS011;47650;49.848;9.620;2022-12-11T13:24:31;19.25;;;12.90;;
61741;SDS011;47650;49.848;9.620;2022-12-11T13:27:10;16.88;;;10.13;;
61741;SDS011;47650;49.848;9.620;2022-12-11T13:29:46;16.58;;;12.45;;
61741;SDS011;47650;49.848;9.620;2022-12-11T13:34:43;15.88;;;11.60;;
61741;SDS011;47650;49.848;9.620;2022-12-11T13:37:37;18.60;;;13.00;;
61741;SDS011;47650;49.848;9.620;2022-12-11T13:40:07;18.40;;;12.32;;
61741;SDS011;47650;49.848;9.620;2022-12-11T13:42:54;14.90;;;10.00;;
61741;SDS011;47650;49.848;9.620;2022-12-11T13:45:26;15.38;;;11.27;;
61741;SDS011;47650;49.848;9.620;2022-12-11T13:47:57;12.35;;;8.75;;
61741;SDS011;47650;49.848;9.620;2022-12-11T13:50:25;14.18;;;9.80;;
61741;SDS011;47650;49.848;9.620;2022-12-11T13:52:54;15.77;;;10.40;;
61741;SDS011;47650;49.848;9.620;2022-12-11T13:55:23;15.27;;;9.55;;
61741;SDS011;47650;49.848;9.620;2022-12-11T13:57:56;12.73;;;8.45;;
61741;SDS011;47650;49.848;9.620;2022-12-11T14:00:23;13.50;;;9.23;;
61741;SDS011;47650;49.848;9.620;2022-12-11T14:02:51;14.65;;;7.95;;
61741;SDS011;47650;49.848;9.620;2022-12-11T14:05:20;13.80;;;9.27;;
61741;SDS011;47650;49.848;9.620;2022-12-11T14:07:50;15.63;;;9.55;;
61741;SDS011;47650;49.848;9.620;2022-12-11T14:10:22;14.00;;;9.73;;
61741;SDS011;47650;49.848;9.620;2022-12-11T14:15:19;15.93;;;10.73;;
61741;SDS011;47650;49.848;9.620;2022-12-11T14:17:45;12.93;;;8.52;;
61741;SDS011;47650;49.848;9.620;2022-12-11T14:20:17;14.65;;;9.40;;
61741;SDS011;47650;49.848;9.620;2022-12-11T14:22:47;15.05;;;9.85;;
61741;SDS011;47650;49.848;9.620;2022-12-11T14:25:17;11.77;;;7.30;;
61741;SDS011;47650;49.848;9.620;2022-12-11T14:27:50;13.77;;;8.77;;
61741;SDS011;47650;49.848;9.620;2022-12-11T14:30:20;15.32;;;9.88;;
61741;SDS011;47650;49.848;9.620;2022-12-11T14:32:49;15.50;;;10.05;;
61741;SDS011;47650;49.848;9.620;2022-12-11T14:37:57;16.73;;;11.30;;
61741;SDS011;47650;49.848;9.620;2022-12-11T14:40:29;14.70;;;9.90;;
61741;SDS011;47650;49.848;9.620;2022-12-11T14:43:00;16.25;;;10.88;;
61741;SDS011;47650;49.848;9.620;2022-12-11T14:45:39;16.33;;;10.88;;
61741;SDS011;47650;49.848;9.620;2022-12-11T14:48:12;19.50;;;10.70;;
61741;SDS011;47650;49.848;9.620;2022-12-11T14:50:47;20.17;;;11.75;;
61741;SDS011;47650;49.848;9.620;2022-12-11T14:53:18;18.75;;;10.25;;
61741;SDS011;47650;49.848;9.620;2022-12-11T14:55:57;17.98;;;12.10;;
61741;SDS011;47650;49.848;9.620;2022-12-11T14:58:26;16.30;;;10.52;;
61741;SDS011;47650;49.848;9.620;2022-12-11T15:00:56;16.25;;;10.63;;
61741;SDS011;47650;49.848;9.620;2022-12-11T15:03:24;14.95;;;9.13;;
61741;SDS011;47650;49.848;9.620;2022-12-11T15:08:26;17.95;;;11.45;;
61741;SDS011;47650;49.848;9.620;2022-12-11T15:13:29;22.90;;;12.75;;
61741;SDS011;47650;49.848;9.620;2022-12-11T15:15:56;21.40;;;11.93;;
61741;SDS011;47650;49.848;9.620;2022-12-11T15:20:55;17.65;;;11.25;;
61741;SDS011;47650;49.848;9.620;2022-12-11T15:23:25;20.17;;;13.35;;
61741;SDS011;47650;49.848;9.620;2022-12-11T15:25:54;17.75;;;11.02;;
61741;SDS011;47650;49.848;9.620;2022-12-11T15:28:26;21.08;;;12.05;;
61741;SDS011;47650;49.848;9.620;2022-12-11T15:30:58;20.63;;;12.02;;
61741;SDS011;47650;49.848;9.620;2022-12-11T15:33:26;18.08;;;10.80;;
61741;SDS011;47650;49.848;9.620;2022-12-11T15:35:55;17.23;;;11.55;;
61741;SDS011;47650;49.848;9.620;2022-12-11T15:38:27;18.58;;;12.18;;
61741;SDS011;47650;49.848;9.620;2022-12-11T15:40:58;18.25;;;10.45;;
61741;SDS011;47650;49.848;9.620;2022-12-11T15:43:25;21.98;;;12.43;;
61741;SDS011;47650;49.848;9.620;2022-12-11T15:45:51;17.63;;;10.20;;
61741;SDS011;47650;49.848;9.620;2022-12-11T15:48:17;19.48;;;11.82;;
61741;SDS011;47650;49.848;9.620;2022-12-11T15:50:42;20.38;;;12.10;;
61741;SDS011;47650;49.848;9.620;2022-12-11T15:53:07;19.70;;;12.35;;
61741;SDS011;47650;49.848;9.620;2022-12-11T15:55:33;19.52;;;12.95;;
61741;SDS011;47650;49.848;9.620;2022-12-11T15:58:00;19.23;;;11.88;;
61741;SDS011;47650;49.848;9.620;2022-12-11T16:00:26;17.70;;;11.32;;
61741;SDS011;47650;49.848;9.620;2022-12-11T16:02:52;18.55;;;11.60;;
61741;SDS011;47650;49.848;9.620;2022-12-11T16:05:25;17.70;;;11.15;;
61741;SDS011;47650;49.848;9.620;2022-12-11T16:07:51;19.73;;;11.85;;
61741;SDS011;47650;49.848;9.620;2022-12-11T16:10:23;18.65;;;11.32;;
61741;SDS011;47650;49.848;9.620;2022-12-11T16:12:50;19.05;;;12.57;;
61741;SDS011;47650;49.848;9.620;2022-12-11T16:15:15;20.80;;;12.02;;